createdAt,value
2017-07-06T00:00:54.550Z,98722.54
2017-07-06T00:03:25.007Z,98727.22
2017-07-06T00:05:54.473Z,98720.20
2017-07-06T00:08:23.898Z,98726.22
2017-07-06T00:10:53.363Z,98729.14
2017-07-06T00:13:22.814Z,98729.66
2017-07-06T00:15:52.278Z,98733.16
2017-07-06T00:18:21.757Z,98737.04
2017-07-06T00:20:51.206Z,98737.50
2017-07-06T00:23:20.664Z,98735.45
2017-07-06T00:25:50.101Z,98735.39
2017-07-06T00:28:19.554Z,98734.09
2017-07-06T00:30:49.027Z,98740.82
2017-07-06T00:33:18.464Z,98741.58
2017-07-06T00:35:47.922Z,98739.35
2017-07-06T00:38:17.370Z,98741.00
2017-07-06T00:40:46.822Z,98742.87
2017-07-06T00:43:16.290Z,98743.14
2017-07-06T00:45:45.730Z,98741.30
2017-07-06T00:48:15.171Z,98740.95
2017-07-06T00:50:44.628Z,98745.34
2017-07-06T00:53:14.075Z,98749.31
2017-07-06T00:55:43.547Z,98744.05
2017-07-06T00:58:12.675Z,98748.45
2017-07-06T01:00:42.126Z,98745.91
2017-07-06T01:03:11.574Z,98747.97
2017-07-06T01:05:41.022Z,98746.59
2017-07-06T01:08:10.480Z,98745.88
2017-07-06T01:10:39.922Z,98751.86
2017-07-06T01:13:09.374Z,98749.82
2017-07-06T01:15:38.831Z,98746.00
2017-07-06T01:18:08.273Z,98749.40
2017-07-06T01:20:37.713Z,98751.70
2017-07-06T01:23:07.160Z,98749.84
2017-07-06T01:25:36.287Z,98749.19
2017-07-06T01:28:05.742Z,98749.49
2017-07-06T01:30:35.193Z,98756.31
2017-07-06T01:33:04.642Z,98759.03
2017-07-06T01:35:34.108Z,98755.39
2017-07-06T01:38:03.567Z,98763.36
2017-07-06T01:40:33.022Z,98762.41
2017-07-06T01:43:02.483Z,98761.30
2017-07-06T01:45:31.926Z,98761.80
2017-07-06T01:48:02.104Z,98775.45
2017-07-06T01:50:31.543Z,98767.46
2017-07-06T01:53:00.993Z,98764.59
2017-07-06T01:55:30.094Z,98766.77
2017-07-06T01:57:59.198Z,98769.84
2017-07-06T02:00:28.654Z,98767.67
2017-07-06T02:02:58.106Z,98770.40
2017-07-06T02:05:27.548Z,98768.70
2017-07-06T02:07:57.006Z,98775.92
2017-07-06T02:10:26.469Z,98778.59
2017-07-06T02:12:55.916Z,98770.20
2017-07-06T02:15:25.540Z,98777.77
2017-07-06T02:17:54.971Z,98782.52
2017-07-06T02:20:24.476Z,98788.87
2017-07-06T02:22:54.164Z,98785.00
2017-07-06T02:25:23.620Z,98792.30
2017-07-06T02:27:53.073Z,98794.07
2017-07-06T02:30:22.563Z,98788.11
2017-07-06T02:32:52.003Z,98794.72
2017-07-06T02:35:21.494Z,98793.78
2017-07-06T02:37:50.949Z,98805.30
2017-07-06T02:40:20.493Z,98799.33
2017-07-06T02:42:49.925Z,98807.25
2017-07-06T02:45:19.466Z,98806.89
2017-07-06T02:47:48.897Z,98811.80
2017-07-06T02:50:18.381Z,98820.81
2017-07-06T02:52:47.827Z,98812.48
2017-07-06T02:55:17.373Z,98820.41
2017-07-06T02:57:46.802Z,98825.72
2017-07-06T03:00:16.296Z,98825.03
2017-07-06T03:02:45.590Z,98829.77
2017-07-06T03:05:15.062Z,98835.36
2017-07-06T03:07:44.345Z,98834.48
2017-07-06T03:10:13.826Z,98838.66
2017-07-06T03:12:43.287Z,98837.20
2017-07-06T03:15:12.777Z,98838.57
2017-07-06T03:17:42.213Z,98843.16
2017-07-06T03:20:11.727Z,98844.42
2017-07-06T03:22:41.197Z,98846.82
2017-07-06T03:25:10.682Z,98850.70
2017-07-06T03:27:40.136Z,98857.37
2017-07-06T03:30:09.136Z,98860.80
2017-07-06T03:32:38.582Z,98856.61
2017-07-06T03:35:08.134Z,98858.62
2017-07-06T03:37:37.794Z,98864.13
2017-07-06T03:40:07.292Z,98863.26
2017-07-06T03:42:36.738Z,98863.43
2017-07-06T03:45:06.166Z,98866.33
2017-07-06T03:47:35.630Z,98869.80
2017-07-06T03:50:05.106Z,98871.41
2017-07-06T03:52:34.548Z,98866.33
2017-07-06T03:55:04.052Z,98871.96
2017-07-06T03:57:33.321Z,98877.44
2017-07-06T04:00:03.026Z,98874.48
2017-07-06T04:02:32.273Z,98882.27
2017-07-06T04:05:01.781Z,98889.09
2017-07-06T04:07:31.367Z,98888.30
2017-07-06T04:10:00.798Z,98894.89
2017-07-06T04:12:30.386Z,98900.14
2017-07-06T04:14:59.840Z,98902.49
2017-07-06T04:17:30.271Z,98900.36
2017-07-06T04:19:59.560Z,98905.37
2017-07-06T04:22:29.030Z,98910.77
2017-07-06T04:24:58.481Z,98913.80
2017-07-06T04:27:27.936Z,98913.31
2017-07-06T04:29:57.386Z,98915.78
2017-07-06T04:32:26.822Z,98920.59
2017-07-06T04:34:56.281Z,98925.84
2017-07-06T04:37:25.738Z,98930.80
2017-07-06T04:39:55.235Z,98930.89
2017-07-06T04:42:24.678Z,98930.20
2017-07-06T04:44:54.305Z,98937.08
2017-07-06T04:47:23.789Z,98938.80
2017-07-06T04:49:53.254Z,98941.10
2017-07-06T04:52:22.540Z,98939.67
2017-07-06T04:54:51.977Z,98940.64
2017-07-06T04:57:21.254Z,98942.23
2017-07-06T04:59:51.473Z,98941.34
2017-07-06T05:02:20.964Z,98942.85
2017-07-06T05:04:50.818Z,98948.11
2017-07-06T05:07:20.273Z,98939.99
2017-07-06T05:09:49.719Z,98945.22
2017-07-06T05:12:19.190Z,98940.66
2017-07-06T05:14:48.642Z,98949.22
2017-07-06T05:17:18.094Z,98948.69
2017-07-06T05:19:47.585Z,98942.37
2017-07-06T05:22:17.028Z,98945.90
2017-07-06T05:24:46.485Z,98948.08
2017-07-06T05:27:15.769Z,98949.34
2017-07-06T05:29:45.219Z,98950.80
2017-07-06T05:32:14.666Z,98946.82
2017-07-06T05:34:44.234Z,98952.22
2017-07-06T05:37:13.744Z,98951.95
2017-07-06T05:39:43.201Z,98956.09
2017-07-06T05:42:12.662Z,98960.12
2017-07-06T05:44:42.115Z,98959.31
2017-07-06T05:47:11.574Z,98959.77
2017-07-06T05:49:40.831Z,98959.94
2017-07-06T05:52:10.268Z,98961.98
2017-07-06T05:54:39.729Z,98959.73
2017-07-06T05:57:09.175Z,98962.09
2017-07-06T05:59:38.628Z,98960.11
2017-07-06T06:02:08.078Z,98960.72
2017-07-06T06:04:37.515Z,98966.47
2017-07-06T06:07:06.974Z,98969.20
2017-07-06T06:09:36.427Z,98969.05
2017-07-06T06:12:05.874Z,98967.25
2017-07-06T06:14:35.328Z,98970.78
2017-07-06T06:17:04.797Z,98971.27
2017-07-06T06:19:34.054Z,98971.63
2017-07-06T06:22:05.181Z,98972.10
2017-07-06T06:24:34.281Z,98965.31
2017-07-06T06:27:03.721Z,98966.66
2017-07-06T06:29:33.169Z,98974.20
2017-07-06T06:32:02.612Z,98975.92
2017-07-06T06:34:32.053Z,98974.77
2017-07-06T06:37:01.509Z,98968.58
2017-07-06T06:39:30.967Z,98962.84
2017-07-06T06:42:00.409Z,98972.86
2017-07-06T06:44:29.862Z,98973.44
2017-07-06T06:46:59.306Z,98978.04
2017-07-06T06:49:28.576Z,98975.45
2017-07-06T06:51:57.690Z,98976.11
2017-07-06T06:54:27.146Z,98980.95
2017-07-06T06:56:56.604Z,98976.31
2017-07-06T06:59:26.043Z,98980.06
2017-07-06T07:01:55.513Z,98976.37
2017-07-06T07:04:24.954Z,98978.38
2017-07-06T07:06:54.415Z,98977.59
2017-07-06T07:09:23.874Z,98980.39
2017-07-06T07:11:53.321Z,98979.61
2017-07-06T07:14:22.868Z,98975.04
2017-07-06T07:16:52.359Z,98971.87
2017-07-06T07:19:21.818Z,98970.52
2017-07-06T07:21:51.297Z,98973.05
2017-07-06T07:24:20.745Z,98974.27
2017-07-06T07:26:50.183Z,98969.76
2017-07-06T07:29:19.627Z,98969.66
2017-07-06T07:31:49.074Z,98967.02
2017-07-06T07:34:18.523Z,98970.68
2017-07-06T07:36:47.969Z,98974.17
2017-07-06T07:39:17.409Z,98972.09
2017-07-06T07:41:46.853Z,98978.38
2017-07-06T07:44:16.315Z,98970.34
2017-07-06T07:46:45.773Z,98976.59
2017-07-06T07:49:15.219Z,98977.12
2017-07-06T07:51:44.675Z,98972.48
2017-07-06T07:54:14.126Z,98966.94
2017-07-06T07:56:43.575Z,98959.55
2017-07-06T07:59:13.041Z,98955.05
2017-07-06T08:01:42.486Z,98963.80
2017-07-06T08:04:11.919Z,98963.58
2017-07-06T08:06:41.372Z,98967.73
2017-07-06T08:09:10.812Z,98961.77
2017-07-06T08:11:40.331Z,98967.83
2017-07-06T08:14:09.796Z,98967.17
2017-07-06T08:16:39.237Z,98968.39
2017-07-06T08:19:08.677Z,98967.02
2017-07-06T08:21:38.117Z,98967.89
2017-07-06T08:24:07.585Z,98963.61
2017-07-06T08:26:37.042Z,98959.42
2017-07-06T08:29:06.485Z,98965.41
2017-07-06T08:31:35.930Z,98964.98
2017-07-06T08:34:05.395Z,98959.85
2017-07-06T08:36:34.849Z,98955.92
2017-07-06T08:39:03.529Z,98958.61
2017-07-06T08:41:32.965Z,98957.25
2017-07-06T08:44:02.423Z,98960.89
2017-07-06T08:46:31.879Z,98953.66
2017-07-06T08:49:01.321Z,98956.22
2017-07-06T08:51:30.770Z,98948.59
2017-07-06T08:54:00.225Z,98948.75
2017-07-06T08:56:29.674Z,98955.48
2017-07-06T08:58:59.124Z,98951.35
2017-07-06T09:01:28.578Z,98954.84
2017-07-06T09:03:58.018Z,98953.55
2017-07-06T09:06:27.474Z,98956.56
2017-07-06T09:08:56.918Z,98948.94
2017-07-06T09:11:26.357Z,98951.81
2017-07-06T09:13:55.827Z,98946.69
2017-07-06T09:16:25.262Z,98949.34
2017-07-06T09:18:55.980Z,98944.39
2017-07-06T09:21:25.418Z,98933.73
2017-07-06T09:23:54.869Z,98939.11
2017-07-06T09:26:24.330Z,98936.41
2017-07-06T09:28:53.774Z,98937.97
2017-07-06T09:31:23.233Z,98937.35
2017-07-06T09:33:52.704Z,98931.63
2017-07-06T09:36:22.152Z,98940.62
2017-07-06T09:38:51.595Z,98932.41
2017-07-06T09:41:21.058Z,98928.49
2017-07-06T09:43:50.507Z,98932.65
2017-07-06T09:46:20.006Z,98926.50
2017-07-06T09:48:49.463Z,98922.38
2017-07-06T09:51:18.918Z,98914.39
2017-07-06T09:53:48.369Z,98920.79
2017-07-06T09:56:17.810Z,98912.68
2017-07-06T09:58:47.102Z,98906.26
2017-07-06T10:01:16.542Z,98906.43
2017-07-06T10:03:46.010Z,98897.52
2017-07-06T10:06:15.465Z,98901.50
2017-07-06T10:08:44.923Z,98892.50
2017-07-06T10:11:14.383Z,98884.27
2017-07-06T10:13:43.853Z,98895.23
2017-07-06T10:16:13.550Z,98889.92
2017-07-06T10:18:43.015Z,98888.66
2017-07-06T10:21:12.450Z,98884.80
2017-07-06T10:23:41.905Z,98884.10
2017-07-06T10:26:11.362Z,98885.70
2017-07-06T10:28:40.837Z,98885.55
2017-07-06T10:31:10.360Z,98881.77
2017-07-06T10:33:40.053Z,98880.16
2017-07-06T10:36:09.501Z,98878.56
2017-07-06T10:38:38.976Z,98881.72
2017-07-06T10:41:08.234Z,98872.35
2017-07-06T10:43:37.686Z,98872.13
2017-07-06T10:46:07.138Z,98867.28
2017-07-06T10:48:36.580Z,98877.97
2017-07-06T10:51:06.012Z,98862.94
2017-07-06T10:53:35.457Z,98868.11
2017-07-06T10:56:04.917Z,98862.41
2017-07-06T10:58:34.341Z,98866.09
2017-07-06T11:01:03.798Z,98870.91
2017-07-06T11:03:33.241Z,98867.58
2017-07-06T11:06:03.565Z,98866.23
2017-07-06T11:08:33.040Z,98869.11
2017-07-06T11:11:02.473Z,98858.48
2017-07-06T11:13:31.915Z,98852.64
2017-07-06T11:16:01.364Z,98859.16
2017-07-06T11:18:30.816Z,98860.15
2017-07-06T11:21:00.254Z,98856.37
2017-07-06T11:23:29.706Z,98860.63
2017-07-06T11:25:59.157Z,98861.58
2017-07-06T11:28:28.609Z,98853.03
2017-07-06T11:30:58.064Z,98852.68
2017-07-06T11:33:27.518Z,98847.67
2017-07-06T11:35:56.963Z,98831.01
2017-07-06T11:38:26.406Z,98829.98
2017-07-06T11:40:55.849Z,98835.80
2017-07-06T11:43:25.290Z,98839.33
2017-07-06T11:45:54.744Z,98838.67
2017-07-06T11:48:24.020Z,98823.84
2017-07-06T11:50:53.466Z,98835.55
2017-07-06T11:53:22.936Z,98821.88
2017-07-06T11:55:52.375Z,98826.55
2017-07-06T11:58:21.824Z,98816.33
2017-07-06T12:00:51.276Z,98813.36
2017-07-06T12:03:20.722Z,98819.59
2017-07-06T12:05:50.183Z,98810.35
2017-07-06T12:08:19.493Z,98814.22
2017-07-06T12:10:48.940Z,98805.31
2017-07-06T12:13:18.121Z,98809.12
2017-07-06T12:15:47.568Z,98802.36
2017-07-06T12:18:17.037Z,98796.16
2017-07-06T12:20:46.313Z,98799.89
2017-07-06T12:23:15.757Z,98800.01
2017-07-06T12:25:45.217Z,98792.91
2017-07-06T12:28:15.383Z,98791.38
2017-07-06T12:30:44.944Z,98797.52
2017-07-06T12:33:14.385Z,98782.91
2017-07-06T12:35:43.849Z,98782.37
2017-07-06T12:38:13.295Z,98779.14
2017-07-06T12:40:42.893Z,98776.30
2017-07-06T12:43:12.365Z,98788.96
2017-07-06T12:45:41.902Z,98779.09
2017-07-06T12:48:11.336Z,98786.88
2017-07-06T12:50:40.788Z,98797.12
2017-07-06T12:53:10.282Z,98778.12
2017-07-06T12:55:39.725Z,98773.95
2017-07-06T12:58:09.180Z,98770.71
2017-07-06T13:00:38.451Z,98775.58
2017-07-06T13:03:07.905Z,98762.80
2017-07-06T13:05:37.377Z,98765.27
2017-07-06T13:08:06.845Z,98756.51
2017-07-06T13:10:36.542Z,98755.52
2017-07-06T13:13:05.993Z,98753.89
2017-07-06T13:15:35.429Z,98751.95
2017-07-06T13:18:04.891Z,98748.03
2017-07-06T13:20:34.333Z,98747.28
2017-07-06T13:23:03.610Z,98728.03
2017-07-06T13:25:33.053Z,98748.14
2017-07-06T13:28:02.513Z,98734.89
2017-07-06T13:30:31.963Z,98732.56
2017-07-06T13:33:01.403Z,98734.41
2017-07-06T13:35:30.856Z,98728.20
2017-07-06T13:38:00.302Z,98738.84
2017-07-06T13:40:29.394Z,98730.39
2017-07-06T13:42:58.846Z,98733.94
2017-07-06T13:45:28.316Z,98729.03
2017-07-06T13:47:57.561Z,98727.48
2017-07-06T13:50:26.826Z,98722.62
2017-07-06T13:52:56.277Z,98717.45
2017-07-06T13:55:25.358Z,98714.26
2017-07-06T13:57:54.259Z,98729.36
2017-07-06T14:00:23.710Z,98728.09
2017-07-06T14:02:53.156Z,98720.73
2017-07-06T14:05:22.601Z,98726.48
2017-07-06T14:07:52.051Z,98712.14
2017-07-06T14:10:21.502Z,98714.48
2017-07-06T14:12:50.959Z,98712.03
2017-07-06T14:15:20.390Z,98705.09
2017-07-06T14:17:49.842Z,98713.23
2017-07-06T14:20:19.298Z,98708.16
2017-07-06T14:22:48.854Z,98703.30
2017-07-06T14:25:18.298Z,98706.71
2017-07-06T14:27:47.769Z,98700.87
2017-07-06T14:30:17.227Z,98706.42
2017-07-06T14:32:46.679Z,98697.48
2017-07-06T14:35:16.135Z,98699.57
2017-07-06T14:37:45.827Z,98693.51
2017-07-06T14:40:15.262Z,98711.31
2017-07-06T14:42:44.736Z,98703.36
2017-07-06T14:45:14.179Z,98687.39
2017-07-06T14:47:43.636Z,98696.38
2017-07-06T14:50:13.094Z,98689.23
2017-07-06T14:52:42.553Z,98687.02
2017-07-06T14:55:12.005Z,98681.08
2017-07-06T14:57:41.477Z,98688.13
2017-07-06T15:00:10.936Z,98675.08
2017-07-06T15:02:40.402Z,98689.13
2017-07-06T15:05:09.849Z,98671.11
2017-07-06T15:07:39.318Z,98665.38
2017-07-06T15:10:08.901Z,98668.61
2017-07-06T15:12:38.990Z,98666.39
2017-07-06T15:15:08.442Z,98663.67
2017-07-06T15:17:37.889Z,98669.28
2017-07-06T15:20:07.377Z,98653.45
2017-07-06T15:22:36.840Z,98649.80
2017-07-06T15:25:06.281Z,98646.06
2017-07-06T15:27:38.038Z,98641.39
2017-07-06T15:30:07.465Z,98638.55
2017-07-06T15:32:36.922Z,98641.39
2017-07-06T15:35:06.384Z,98637.95
2017-07-06T15:37:35.818Z,98636.72
2017-07-06T15:40:05.205Z,98632.31
2017-07-06T15:42:34.648Z,98623.17
2017-07-06T15:45:04.096Z,98634.56
2017-07-06T15:47:33.534Z,98620.73
2017-07-06T15:50:03.006Z,98617.91
2017-07-06T15:52:32.458Z,98622.73
2017-07-06T15:55:01.927Z,98610.89
2017-07-06T15:57:31.383Z,98609.69
2017-07-06T16:00:00.650Z,98608.14
2017-07-06T16:02:29.911Z,98611.02
2017-07-06T16:04:59.369Z,98604.16
2017-07-06T16:07:28.830Z,98593.94
2017-07-06T16:09:58.279Z,98592.77
2017-07-06T16:12:27.754Z,98587.72
2017-07-06T16:14:57.248Z,98592.92
2017-07-06T16:17:26.699Z,98595.81
2017-07-06T16:19:56.153Z,98590.13
2017-07-06T16:22:26.250Z,98591.20
2017-07-06T16:24:55.713Z,98594.59
2017-07-06T16:27:25.203Z,98594.70
2017-07-06T16:29:54.815Z,98585.58
2017-07-06T16:32:24.250Z,98592.31
2017-07-06T16:34:53.701Z,98587.83
2017-07-06T16:37:23.140Z,98588.63
2017-07-06T16:39:52.458Z,98590.51
2017-07-06T16:42:21.912Z,98578.12
2017-07-06T16:44:51.383Z,98580.63
2017-07-06T16:47:20.804Z,98586.40
2017-07-06T16:49:50.285Z,98583.73
2017-07-06T16:52:19.541Z,98576.62
2017-07-06T16:54:48.992Z,98575.35
2017-07-06T16:57:18.450Z,98579.92
2017-07-06T16:59:47.933Z,98585.05
2017-07-06T17:02:17.382Z,98582.33
2017-07-06T17:04:46.869Z,98584.56
2017-07-06T17:07:16.326Z,98583.70
2017-07-06T17:09:45.781Z,98584.48
2017-07-06T17:12:15.248Z,98580.03
2017-07-06T17:14:44.738Z,98579.50
2017-07-06T17:17:14.181Z,98589.36
2017-07-06T17:19:43.641Z,98581.92
2017-07-06T17:22:13.091Z,98587.95
2017-07-06T17:24:42.525Z,98585.16
2017-07-06T17:27:11.977Z,98583.85
2017-07-06T17:29:41.433Z,98590.26
2017-07-06T17:32:10.919Z,98589.09
2017-07-06T17:34:40.373Z,98595.47
2017-07-06T17:37:09.855Z,98589.59
2017-07-06T17:39:39.306Z,98588.88
2017-07-06T17:42:08.795Z,98591.21
2017-07-06T17:44:38.300Z,98584.06
2017-07-06T17:47:07.732Z,98593.25
2017-07-06T17:49:37.307Z,98586.07
2017-07-06T17:52:06.758Z,98592.49
2017-07-06T17:54:36.228Z,98593.63
2017-07-06T17:57:05.653Z,98589.59
2017-07-06T17:59:35.098Z,98592.00
2017-07-06T18:02:04.594Z,98587.64
2017-07-06T18:04:34.051Z,98587.77
2017-07-06T18:07:03.486Z,98584.84
2017-07-06T18:09:32.974Z,98586.30
2017-07-06T18:12:02.429Z,98588.70
2017-07-06T18:14:31.987Z,98581.39
2017-07-06T18:17:01.535Z,98588.92
2017-07-06T18:19:30.985Z,98593.65
2017-07-06T18:22:00.440Z,98590.81
2017-07-06T18:24:29.664Z,98589.60
2017-07-06T18:26:59.120Z,98592.42
2017-07-06T18:29:28.598Z,98599.82
2017-07-06T18:31:58.041Z,98595.50
2017-07-06T18:34:27.506Z,98597.93
2017-07-06T18:36:56.971Z,98595.50
2017-07-06T18:39:26.448Z,98598.97
2017-07-06T18:41:56.035Z,98600.27
2017-07-06T18:44:25.466Z,98600.20
2017-07-06T18:46:54.943Z,98593.78
2017-07-06T18:49:24.993Z,98593.61
2017-07-06T18:51:54.455Z,98597.30
2017-07-06T18:54:23.906Z,98598.37
2017-07-06T18:56:53.387Z,98602.75
2017-07-06T18:59:22.828Z,98605.88
2017-07-06T19:01:52.283Z,98614.08
2017-07-06T19:04:21.735Z,98615.95
2017-07-06T19:06:51.187Z,98612.17
2017-07-06T19:09:20.626Z,98613.69
2017-07-06T19:11:50.110Z,98613.96
2017-07-06T19:14:19.588Z,98614.11
2017-07-06T19:16:49.027Z,98616.48
2017-07-06T19:19:18.491Z,98616.27
2017-07-06T19:21:47.968Z,98620.94
2017-07-06T19:24:17.422Z,98619.77
2017-07-06T19:26:46.938Z,98619.06
2017-07-06T19:29:16.359Z,98623.55
2017-07-06T19:31:45.811Z,98622.20
2017-07-06T19:34:15.285Z,98631.69
2017-07-06T19:36:44.724Z,98632.88
2017-07-06T19:39:14.176Z,98636.77
2017-07-06T19:41:43.621Z,98633.89
2017-07-06T19:44:13.103Z,98644.64
2017-07-06T19:46:42.546Z,98641.05
2017-07-06T19:49:12.006Z,98640.14
2017-07-06T19:51:41.483Z,98645.63
2017-07-06T19:54:10.929Z,98642.47
2017-07-06T19:56:40.394Z,98639.27
2017-07-06T19:59:09.836Z,98642.22
2017-07-06T20:01:39.286Z,98641.88
2017-07-06T20:04:08.886Z,98641.63
2017-07-06T20:06:38.338Z,98642.57
2017-07-06T20:09:07.787Z,98642.07
2017-07-06T20:11:37.261Z,98646.98
2017-07-06T20:14:06.719Z,98646.13
2017-07-06T20:16:36.185Z,98644.11
2017-07-06T20:19:05.641Z,98642.38
2017-07-06T20:21:35.097Z,98645.79
2017-07-06T20:24:04.550Z,98645.83
2017-07-06T20:26:34.001Z,98639.80
2017-07-06T20:29:03.461Z,98648.93
2017-07-06T20:31:32.918Z,98648.24
2017-07-06T20:34:03.159Z,98646.64
2017-07-06T20:36:32.601Z,98654.05
2017-07-06T20:39:02.037Z,98647.86
2017-07-06T20:41:31.395Z,98647.32
2017-07-06T20:44:00.846Z,98644.70
2017-07-06T20:46:30.325Z,98648.06
2017-07-06T20:48:59.779Z,98667.72
2017-07-06T20:51:29.227Z,98659.73
2017-07-06T20:53:58.682Z,98663.86
2017-07-06T20:56:30.354Z,98666.44
2017-07-06T20:59:00.679Z,98674.69
2017-07-06T21:01:30.494Z,98669.13
2017-07-06T21:04:00.408Z,98674.94
2017-07-06T21:06:30.439Z,98682.20
2017-07-06T21:09:00.752Z,98683.94
2017-07-06T21:11:30.513Z,98686.34
2017-07-06T21:14:01.506Z,98681.53
2017-07-06T21:16:31.417Z,98679.80
2017-07-06T21:19:01.438Z,98685.73
2017-07-06T21:21:31.350Z,98694.44
2017-07-06T21:24:01.264Z,98690.47
2017-07-06T21:26:31.081Z,98694.17
2017-07-06T21:29:00.557Z,98698.94
2017-07-06T21:31:30.061Z,98704.36
2017-07-06T21:33:59.512Z,98698.47
2017-07-06T21:36:28.957Z,98707.42
2017-07-06T21:38:58.410Z,98701.66
2017-07-06T21:41:27.858Z,98707.22
2017-07-06T21:43:57.305Z,98708.16
2017-07-06T21:46:26.838Z,98710.27
2017-07-06T21:48:56.264Z,98717.31
2017-07-06T21:51:25.698Z,98711.52
2017-07-06T21:53:55.259Z,98713.28
2017-07-06T21:56:24.726Z,98713.31
2017-07-06T21:58:54.177Z,98715.33
2017-07-06T22:01:23.633Z,98717.69
2017-07-06T22:03:53.098Z,98713.09
2017-07-06T22:06:22.551Z,98716.53
2017-07-06T22:08:52.012Z,98719.33
2017-07-06T22:11:21.457Z,98718.36
2017-07-06T22:13:50.896Z,98716.54
2017-07-06T22:16:20.360Z,98718.23
2017-07-06T22:18:49.798Z,98713.36
2017-07-06T22:21:19.254Z,98705.92
2017-07-06T22:23:48.722Z,98706.11
2017-07-06T22:26:18.157Z,98707.13
2017-07-06T22:28:47.614Z,98703.33
2017-07-06T22:31:17.078Z,98711.45
2017-07-06T22:33:46.342Z,98715.81
2017-07-06T22:36:15.797Z,98715.21
2017-07-06T22:38:45.233Z,98714.15
2017-07-06T22:41:14.713Z,98706.53
2017-07-06T22:43:44.168Z,98712.20
2017-07-06T22:46:13.661Z,98708.41
2017-07-06T22:48:43.135Z,98703.26
2017-07-06T22:51:12.679Z,98698.94
2017-07-06T22:53:42.150Z,98701.02
2017-07-06T22:56:11.610Z,98692.14
2017-07-06T22:58:41.050Z,98699.30
2017-07-06T23:01:10.525Z,98694.61
2017-07-06T23:03:39.971Z,98695.72
2017-07-06T23:06:09.435Z,98701.45
2017-07-06T23:08:38.894Z,98696.36
2017-07-06T23:11:08.337Z,98700.14
2017-07-06T23:13:37.784Z,98697.19
2017-07-06T23:16:07.225Z,98702.25
2017-07-06T23:18:36.684Z,98708.11
2017-07-06T23:21:06.154Z,98703.45
2017-07-06T23:23:35.446Z,98702.48
2017-07-06T23:26:04.913Z,98703.63
2017-07-06T23:28:34.354Z,98697.57
2017-07-06T23:31:03.844Z,98699.94
2017-07-06T23:33:33.302Z,98693.61
2017-07-06T23:36:02.569Z,98686.62
2017-07-06T23:38:32.043Z,98685.22
2017-07-06T23:41:01.481Z,98675.97
2017-07-06T23:43:30.943Z,98679.08
2017-07-06T23:46:00.396Z,98673.54
2017-07-06T23:48:29.858Z,98673.88
2017-07-06T23:50:59.313Z,98672.83
2017-07-06T23:53:28.757Z,98681.36
2017-07-06T23:55:58.214Z,98692.41
2017-07-06T23:58:27.656Z,98690.00
